createdAt,value
2022-09-11T00:01:57.570Z,17.52
2022-09-11T00:04:27.057Z,17.49
2022-09-11T00:06:56.435Z,17.73
2022-09-11T00:09:25.532Z,17.78
2022-09-11T00:11:55.453Z,17.52
2022-09-11T00:14:28.164Z,17.35
2022-09-11T00:16:57.429Z,17.42
2022-09-11T00:19:27.442Z,17.50
2022-09-11T00:21:57.378Z,17.49
2022-09-11T00:24:25.502Z,17.45
2022-09-11T00:26:54.730Z,17.48
2022-09-11T00:29:24.333Z,17.63
2022-09-11T00:31:54.145Z,17.40
2022-09-11T00:34:23.972Z,17.40
2022-09-11T00:36:53.595Z,17.43
2022-09-11T00:39:22.875Z,17.43
2022-09-11T00:41:53.545Z,17.36
2022-09-11T00:45:00.452Z,17.60
2022-09-11T00:47:31.218Z,17.36
2022-09-11T00:50:08.254Z,17.29
2022-09-11T00:52:39.977Z,17.10
2022-09-11T00:55:13.063Z,17.46
2022-09-11T00:57:45.522Z,17.28
2022-09-11T01:00:15.332Z,17.45
2022-09-11T01:02:52.339Z,17.32
2022-09-11T01:05:22.956Z,17.32
2022-09-11T01:07:54.619Z,17.37
2022-09-11T01:10:29.722Z,17.32
2022-09-11T01:13:04.930Z,17.30
2022-09-11T01:15:40.346Z,17.31
2022-09-11T01:18:16.696Z,17.27
2022-09-11T01:21:02.109Z,17.43
2022-09-11T01:23:50.811Z,17.38
2022-09-11T01:26:40.190Z,17.28
2022-09-11T01:29:19.087Z,17.52
2022-09-11T01:31:54.571Z,17.46
2022-09-11T01:34:34.440Z,17.49
2022-09-11T01:37:07.047Z,17.59
2022-09-11T01:39:48.035Z,17.36
2022-09-11T01:42:19.053Z,17.41
2022-09-11T01:44:52.218Z,17.30
2022-09-11T01:47:21.749Z,17.33
2022-09-11T01:49:55.210Z,17.41
2022-09-11T01:52:32.523Z,17.39
2022-09-11T01:55:03.474Z,17.55
2022-09-11T01:57:34.667Z,17.52
2022-09-11T02:00:12.113Z,17.56
2022-09-11T02:02:57.704Z,17.22
2022-09-11T02:05:31.506Z,17.36
2022-09-11T02:08:04.176Z,17.41
2022-09-11T02:10:37.317Z,17.31
2022-09-11T02:13:09.988Z,17.21
2022-09-11T02:15:47.192Z,17.36
2022-09-11T02:18:21.111Z,17.30
2022-09-11T02:20:51.460Z,17.33
2022-09-11T02:23:19.660Z,17.33
2022-09-11T02:25:49.222Z,17.26
2022-09-11T02:28:20.675Z,17.51
2022-09-11T02:30:51.200Z,17.21
2022-09-11T02:33:32.076Z,17.22
2022-09-11T02:36:13.835Z,17.44
2022-09-11T02:38:53.639Z,17.43
2022-09-11T02:41:25.578Z,17.39
2022-09-11T02:44:00.572Z,17.51
2022-09-11T02:46:46.611Z,17.59
2022-09-11T02:49:22.061Z,17.33
2022-09-11T02:51:56.500Z,17.27
2022-09-11T02:54:30.981Z,17.38
2022-09-11T02:57:05.050Z,17.25
2022-09-11T02:59:38.236Z,17.39
2022-09-11T03:02:14.567Z,17.31
2022-09-11T03:04:45.634Z,17.32
2022-09-11T03:07:17.684Z,17.22
2022-09-11T03:09:47.065Z,17.07
2022-09-11T03:12:22.227Z,17.19
2022-09-11T03:14:52.782Z,17.31
2022-09-11T03:17:24.361Z,17.22
2022-09-11T03:19:52.767Z,17.38
2022-09-11T03:22:21.092Z,17.29
2022-09-11T03:24:49.754Z,17.19
2022-09-11T03:27:19.779Z,17.18
2022-09-11T03:29:48.968Z,17.11
2022-09-11T03:32:17.869Z,17.19
2022-09-11T03:34:49.027Z,17.00
2022-09-11T03:37:18.293Z,17.19
2022-09-11T03:39:49.263Z,17.11
2022-09-11T03:42:18.043Z,17.11
2022-09-11T03:44:47.423Z,17.16
2022-09-11T03:47:15.828Z,17.13
2022-09-11T03:49:45.121Z,17.17
2022-09-11T03:52:15.364Z,17.19
2022-09-11T03:54:47.763Z,17.13
2022-09-11T03:57:16.865Z,17.09
2022-09-11T03:59:47.351Z,17.22
2022-09-11T04:02:15.882Z,17.01
2022-09-11T04:04:44.454Z,17.21
2022-09-11T04:07:12.813Z,17.03
2022-09-11T04:09:47.554Z,16.98
2022-09-11T04:12:16.271Z,17.13
2022-09-11T04:14:48.424Z,17.17
2022-09-11T04:17:17.890Z,17.29
2022-09-11T04:19:47.410Z,17.25
2022-09-11T04:22:15.679Z,17.23
2022-09-11T04:24:45.393Z,17.14
2022-09-11T04:27:14.829Z,17.10
2022-09-11T04:29:47.196Z,17.07
2022-09-11T04:32:17.296Z,17.16
2022-09-11T04:34:46.885Z,17.15
2022-09-11T04:37:16.714Z,17.21
2022-09-11T04:39:47.163Z,17.10
2022-09-11T04:42:16.956Z,17.08
2022-09-11T04:44:47.186Z,16.92
2022-09-11T04:47:16.212Z,17.11
2022-09-11T04:49:47.232Z,16.97
2022-09-11T04:52:15.939Z,17.01
2022-09-11T04:54:44.181Z,17.18
2022-09-11T04:57:14.541Z,17.21
2022-09-11T04:59:44.133Z,17.17
2022-09-11T05:02:15.224Z,17.09
2022-09-11T05:04:48.389Z,17.21
2022-09-11T05:07:17.065Z,17.33
2022-09-11T05:09:50.042Z,17.26
2022-09-11T05:12:21.278Z,17.33
2022-09-11T05:14:51.292Z,17.46
2022-09-11T05:17:19.920Z,17.52
2022-09-11T05:19:50.444Z,17.46
2022-09-11T05:22:23.282Z,17.29
2022-09-11T05:24:57.534Z,17.34
2022-09-11T05:27:27.853Z,17.34
2022-09-11T05:29:58.077Z,17.44
2022-09-11T05:32:26.158Z,17.42
2022-09-11T05:34:55.558Z,17.50
2022-09-11T05:37:24.803Z,17.46
2022-09-11T05:39:57.276Z,17.42
2022-09-11T05:42:28.758Z,17.70
2022-09-11T05:44:57.962Z,17.36
2022-09-11T05:47:27.875Z,17.49
2022-09-11T05:49:58.014Z,17.50
2022-09-11T05:52:26.983Z,17.44
2022-09-11T05:54:56.824Z,17.36
2022-09-11T05:57:27.429Z,17.28
2022-09-11T05:59:56.940Z,17.48
2022-09-11T06:02:25.387Z,17.49
2022-09-11T06:04:56.789Z,17.31
2022-09-11T06:07:26.909Z,17.19
2022-09-11T06:09:58.701Z,17.19
2022-09-11T06:12:33.609Z,17.33
2022-09-11T06:15:02.149Z,17.42
2022-09-11T06:17:35.068Z,17.43
2022-09-11T06:20:07.046Z,17.64
2022-09-11T06:22:37.773Z,17.53
2022-09-11T06:25:08.370Z,17.62
2022-09-11T06:27:37.927Z,17.71
2022-09-11T06:30:09.123Z,17.57
2022-09-11T06:32:40.304Z,17.67
2022-09-11T06:35:10.723Z,17.60
2022-09-11T06:37:38.875Z,17.36
2022-09-11T06:40:13.467Z,17.27
2022-09-11T06:42:47.523Z,17.47
2022-09-11T06:45:17.407Z,17.30
2022-09-11T06:47:47.362Z,17.44
2022-09-11T06:50:16.025Z,17.39
2022-09-11T06:53:00.412Z,17.20
2022-09-11T06:55:32.207Z,17.16
2022-09-11T06:58:09.251Z,17.25
2022-09-11T07:00:38.255Z,17.33
2022-09-11T07:03:08.217Z,17.08
2022-09-11T07:05:40.350Z,17.08
2022-09-11T07:08:10.703Z,17.24
2022-09-11T07:10:39.356Z,17.38
2022-09-11T07:13:10.296Z,17.31
2022-09-11T07:15:40.818Z,17.32
2022-09-11T07:18:11.630Z,17.51
2022-09-11T07:20:40.807Z,17.56
2022-09-11T07:23:09.571Z,17.60
2022-09-11T07:25:49.865Z,17.74
2022-09-11T07:28:20.515Z,17.28
2022-09-11T07:30:50.179Z,17.32
2022-09-11T07:33:20.462Z,17.53
2022-09-11T07:35:49.123Z,17.43
2022-09-11T07:38:18.998Z,17.41
2022-09-11T07:40:48.152Z,17.68
2022-09-11T07:43:17.721Z,17.69
2022-09-11T07:45:48.494Z,17.94
2022-09-11T07:48:16.755Z,17.83
2022-09-11T07:50:56.418Z,17.94
2022-09-11T07:53:26.525Z,18.18
2022-09-11T07:55:56.185Z,18.21
2022-09-11T07:58:25.185Z,18.16
2022-09-11T08:01:00.098Z,18.37
2022-09-11T08:03:31.198Z,18.51
2022-09-11T08:06:00.957Z,18.68
2022-09-11T08:08:30.896Z,18.89
2022-09-11T08:11:05.533Z,18.64
2022-09-11T08:13:34.310Z,18.69
2022-09-11T08:16:05.625Z,18.74
2022-09-11T08:18:35.324Z,18.71
2022-09-11T08:21:12.550Z,18.86
2022-09-11T08:23:42.971Z,19.09
2022-09-11T08:26:17.476Z,18.90
2022-09-11T08:28:46.511Z,19.01
2022-09-11T08:31:18.789Z,18.88
2022-09-11T08:33:49.479Z,18.94
2022-09-11T08:36:19.150Z,19.03
2022-09-11T08:38:48.237Z,19.11
2022-09-11T08:41:29.639Z,18.81
2022-09-11T08:44:01.830Z,19.01
2022-09-11T08:46:38.176Z,18.83
2022-09-11T08:49:14.218Z,19.00
2022-09-11T08:51:44.919Z,18.91
2022-09-11T08:54:27.825Z,19.30
2022-09-11T08:57:08.698Z,19.07
2022-09-11T08:59:50.375Z,19.22
2022-09-11T09:02:34.313Z,19.10
2022-09-11T09:05:14.629Z,19.09
2022-09-11T09:07:54.811Z,19.19
2022-09-11T09:10:35.791Z,18.95
2022-09-11T09:13:19.851Z,19.07
2022-09-11T09:15:53.021Z,18.97
2022-09-11T09:18:29.412Z,18.93
2022-09-11T09:21:02.791Z,19.26
2022-09-11T09:23:37.207Z,19.06
2022-09-11T09:26:07.289Z,19.25
2022-09-11T09:28:45.706Z,19.21
2022-09-11T09:31:18.549Z,19.35
2022-09-11T09:33:51.300Z,19.30
2022-09-11T09:36:22.580Z,19.20
2022-09-11T09:38:56.039Z,19.67
2022-09-11T09:41:52.344Z,20.03
2022-09-11T09:44:30.822Z,20.50
2022-09-11T09:46:59.485Z,20.04
2022-09-11T09:49:33.124Z,19.26
2022-09-11T09:52:07.425Z,19.31
2022-09-11T09:54:37.415Z,19.06
2022-09-11T09:57:10.515Z,18.88
2022-09-11T09:59:44.749Z,18.64
2022-09-11T10:02:13.677Z,18.32
2022-09-11T10:04:46.306Z,18.37
2022-09-11T10:07:20.818Z,18.41
2022-09-11T10:09:52.397Z,18.10
2022-09-11T10:12:24.596Z,18.07
2022-09-11T10:15:00.115Z,17.97
2022-09-11T10:17:33.459Z,17.99
2022-09-11T10:20:23.145Z,18.21
2022-09-11T10:22:53.085Z,18.29
2022-09-11T10:25:23.604Z,18.34
2022-09-11T10:28:02.319Z,18.15
2022-09-11T10:30:34.388Z,18.64
2022-09-11T10:33:08.568Z,18.62
2022-09-11T10:35:38.919Z,18.64
2022-09-11T10:38:18.353Z,18.55
2022-09-11T10:41:08.005Z,18.62
2022-09-11T10:43:47.400Z,18.42
2022-09-11T10:46:25.785Z,18.23
2022-09-11T10:48:56.811Z,18.18
2022-09-11T10:51:28.263Z,18.39
2022-09-11T10:54:08.431Z,18.41
2022-09-11T10:57:00.254Z,18.32
2022-09-11T10:59:36.769Z,18.27
2022-09-11T11:02:05.470Z,18.42
2022-09-11T11:04:35.451Z,18.21
2022-09-11T11:07:12.168Z,18.49
2022-09-11T11:09:54.556Z,18.70
2022-09-11T11:12:43.266Z,19.15
2022-09-11T11:15:34.900Z,19.22
2022-09-11T11:18:19.791Z,19.20
2022-09-11T11:20:55.500Z,19.11
2022-09-11T11:23:43.265Z,19.13
2022-09-11T11:26:27.706Z,19.46
2022-09-11T11:29:10.357Z,19.05
2022-09-11T11:31:56.449Z,19.59
2022-09-11T11:34:37.215Z,19.68
2022-09-11T11:37:09.137Z,19.81
2022-09-11T11:39:47.416Z,19.37
2022-09-11T11:42:22.779Z,19.01
2022-09-11T11:44:52.646Z,19.41
2022-09-11T11:47:26.242Z,19.51
2022-09-11T11:50:01.258Z,19.74
2022-09-11T11:52:40.290Z,19.52
2022-09-11T11:55:17.960Z,20.06
2022-09-11T11:58:00.541Z,20.24
2022-09-11T12:00:31.635Z,20.00
2022-09-11T12:03:04.593Z,20.51
2022-09-11T12:05:37.603Z,20.65
2022-09-11T12:08:13.693Z,20.08
2022-09-11T12:10:50.644Z,20.16
2022-09-11T12:13:20.779Z,20.43
2022-09-11T12:16:03.221Z,19.81
2022-09-11T12:18:31.772Z,19.81
2022-09-11T12:21:35.717Z,19.74
2022-09-11T12:24:14.170Z,19.40
2022-09-11T12:26:49.406Z,19.25
2022-09-11T12:29:55.745Z,19.33
2022-09-11T12:32:29.229Z,19.03
2022-09-11T12:35:04.338Z,18.95
2022-09-11T12:37:37.991Z,18.95
2022-09-11T12:40:09.341Z,19.15
2022-09-11T12:42:57.851Z,18.96
2022-09-11T12:45:36.394Z,18.78
2022-09-11T12:48:11.358Z,19.08
2022-09-11T12:50:39.912Z,18.99
2022-09-11T12:53:17.647Z,19.33
2022-09-11T12:55:53.901Z,18.96
2022-09-11T12:58:31.197Z,19.42
2022-09-11T13:01:18.844Z,19.43
2022-09-11T13:03:56.211Z,19.46
2022-09-11T13:06:25.758Z,19.12
2022-09-11T13:09:02.843Z,19.71
2022-09-11T13:11:48.123Z,19.39
2022-09-11T13:14:56.510Z,19.53
2022-09-11T13:17:27.212Z,19.65
2022-09-11T13:19:59.681Z,20.04
2022-09-11T13:22:31.415Z,19.93
2022-09-11T13:25:12.790Z,20.33
2022-09-11T13:27:42.245Z,20.48
2022-09-11T13:30:15.133Z,20.41
2022-09-11T13:32:44.530Z,20.37
2022-09-11T13:35:17.121Z,20.86
2022-09-11T13:37:51.748Z,20.96
2022-09-11T13:40:25.677Z,20.94
2022-09-11T13:42:55.500Z,21.04
2022-09-11T13:45:26.446Z,20.92
2022-09-11T13:47:56.342Z,21.05
2022-09-11T13:50:24.872Z,20.33
2022-09-11T13:52:55.177Z,20.78
2022-09-11T13:55:27.128Z,20.20
2022-09-11T13:57:58.734Z,20.48
2022-09-11T14:00:46.462Z,20.48
2022-09-11T14:03:23.268Z,20.56
2022-09-11T14:05:55.087Z,20.50
2022-09-11T14:08:28.555Z,20.77
2022-09-11T14:11:00.993Z,20.36
2022-09-11T14:13:33.182Z,20.66
2022-09-11T14:16:07.588Z,20.31
2022-09-11T14:18:42.848Z,20.69
2022-09-11T14:21:15.004Z,20.33
2022-09-11T14:23:48.290Z,20.55
2022-09-11T14:26:18.999Z,20.55
2022-09-11T14:29:02.810Z,20.46
2022-09-11T14:31:37.984Z,20.49
2022-09-11T14:34:15.250Z,20.68
2022-09-11T14:36:47.678Z,21.07
2022-09-11T14:39:21.072Z,21.49
2022-09-11T14:41:50.382Z,21.05
2022-09-11T14:44:20.038Z,21.25
2022-09-11T14:46:50.941Z,21.06
2022-09-11T14:49:19.754Z,21.19
2022-09-11T14:51:54.919Z,21.10
2022-09-11T14:54:24.095Z,21.17
2022-09-11T14:56:56.814Z,21.01
2022-09-11T14:59:25.809Z,21.05
2022-09-11T15:01:59.660Z,21.35
2022-09-11T15:04:29.886Z,21.34
2022-09-11T15:06:59.988Z,20.78
2022-09-11T15:09:29.209Z,20.94
2022-09-11T15:12:01.186Z,20.79
2022-09-11T15:14:54.834Z,20.98
2022-09-11T15:17:25.421Z,20.79
2022-09-11T15:19:54.701Z,20.47
2022-09-11T15:22:23.292Z,20.55
2022-09-11T15:24:51.741Z,20.38
2022-09-11T15:27:22.956Z,21.02
2022-09-11T15:29:51.829Z,21.00
2022-09-11T15:32:21.654Z,20.87
2022-09-11T15:34:54.864Z,21.02
2022-09-11T15:37:23.814Z,21.27
2022-09-11T15:39:52.878Z,21.59
2022-09-11T15:42:22.341Z,21.39
2022-09-11T15:44:51.993Z,20.72
2022-09-11T15:47:22.393Z,20.90
2022-09-11T15:49:52.088Z,20.09
2022-09-11T15:52:21.563Z,19.19
2022-09-11T15:54:51.148Z,19.12
2022-09-11T15:57:20.567Z,18.61
2022-09-11T15:59:50.079Z,17.98
2022-09-11T16:02:20.925Z,17.74
2022-09-11T16:04:53.731Z,17.66
2022-09-11T16:07:22.482Z,17.67
2022-09-11T16:09:50.911Z,17.74
2022-09-11T16:12:20.753Z,17.89
2022-09-11T16:14:50.349Z,17.97
2022-09-11T16:17:21.721Z,17.81
2022-09-11T16:19:53.806Z,18.06
2022-09-11T16:22:21.952Z,17.92
2022-09-11T16:24:50.787Z,18.14
2022-09-11T16:27:20.503Z,17.97
2022-09-11T16:30:20.607Z,17.79
2022-09-11T16:32:39.319Z,17.93
2022-09-11T16:35:13.466Z,18.08
2022-09-11T16:37:42.089Z,18.13
2022-09-11T16:40:11.836Z,18.23
2022-09-11T16:42:40.182Z,18.20
2022-09-11T16:45:10.443Z,18.13
2022-09-11T16:47:38.731Z,18.16
2022-09-11T16:50:08.694Z,18.11
2022-09-11T16:52:39.187Z,18.21
2022-09-11T16:55:10.795Z,18.27
2022-09-11T16:57:39.467Z,18.20
2022-09-11T17:00:10.877Z,18.08
2022-09-11T17:02:39.244Z,18.16
2022-09-11T17:05:09.898Z,18.38
2022-09-11T17:07:44.001Z,18.21
2022-09-11T17:10:12.905Z,18.23
2022-09-11T17:12:44.174Z,18.08
2022-09-11T17:15:13.220Z,18.14
2022-09-11T17:17:45.711Z,18.23
2022-09-11T17:20:16.580Z,18.30
2022-09-11T17:22:54.882Z,18.27
2022-09-11T17:25:26.959Z,18.39
2022-09-11T17:27:56.514Z,18.38
2022-09-11T17:30:25.369Z,18.30
2022-09-11T17:32:53.731Z,18.25
2022-09-11T17:35:24.606Z,18.38
2022-09-11T17:37:55.947Z,18.47
2022-09-11T17:40:36.899Z,18.40
2022-09-11T17:43:07.500Z,18.33
2022-09-11T17:45:40.173Z,18.36
2022-09-11T17:48:10.287Z,18.18
2022-09-11T17:50:40.187Z,18.49
2022-09-11T17:53:09.926Z,18.38
2022-09-11T17:55:41.885Z,18.26
2022-09-11T17:58:11.254Z,18.42
2022-09-11T18:01:16.707Z,18.42
2022-09-11T18:03:46.122Z,18.38
2022-09-11T18:06:24.384Z,18.31
2022-09-11T18:09:01.985Z,18.38
2022-09-11T18:11:32.270Z,18.35
2022-09-11T18:14:02.514Z,18.10
2022-09-11T18:16:32.229Z,18.39
2022-09-11T18:19:05.643Z,18.18
2022-09-11T18:21:38.325Z,18.22
2022-09-11T18:24:19.879Z,17.98
2022-09-11T18:27:00.892Z,18.07
2022-09-11T18:29:33.554Z,18.23
2022-09-11T18:32:04.386Z,18.08
2022-09-11T18:34:33.610Z,18.12
2022-09-11T18:37:03.094Z,18.30
2022-09-11T18:39:35.526Z,18.37
2022-09-11T18:42:07.554Z,18.24
2022-09-11T18:44:37.824Z,18.20
2022-09-11T18:47:08.964Z,18.29
2022-09-11T18:49:39.994Z,18.13
2022-09-11T18:52:11.027Z,18.16
2022-09-11T18:54:43.439Z,18.21
2022-09-11T18:57:15.390Z,18.11
2022-09-11T18:59:44.542Z,18.05
2022-09-11T19:02:13.436Z,18.00
2022-09-11T19:04:43.752Z,17.92
2022-09-11T19:07:16.869Z,17.99
2022-09-11T19:09:49.398Z,17.98
2022-09-11T19:12:21.292Z,17.95
2022-09-11T19:14:50.193Z,17.83
2022-09-11T19:17:20.091Z,17.84
2022-09-11T19:19:49.409Z,17.93
2022-09-11T19:22:23.014Z,17.96
2022-09-11T19:24:57.192Z,17.79
2022-09-11T19:27:32.158Z,17.90
2022-09-11T19:30:06.520Z,17.98
2022-09-11T19:32:35.113Z,18.00
2022-09-11T19:35:05.414Z,17.97
2022-09-11T19:37:34.103Z,17.99
2022-09-11T19:40:07.436Z,17.76
2022-09-11T19:42:38.027Z,17.82
2022-09-11T19:45:09.724Z,17.78
2022-09-11T19:47:38.255Z,17.73
2022-09-11T19:50:09.677Z,17.75
2022-09-11T19:52:38.056Z,17.72
2022-09-11T19:55:09.685Z,17.68
2022-09-11T19:57:38.116Z,17.59
2022-09-11T20:00:16.882Z,17.68
2022-09-11T20:02:46.600Z,17.74
2022-09-11T20:05:15.289Z,17.77
2022-09-11T20:07:47.876Z,17.82
2022-09-11T20:10:25.630Z,17.84
2022-09-11T20:12:56.027Z,17.76
2022-09-11T20:15:25.285Z,17.57
2022-09-11T20:17:55.155Z,17.52
2022-09-11T20:20:24.150Z,17.73
2022-09-11T20:22:56.161Z,17.70
2022-09-11T20:25:29.300Z,17.73
2022-09-11T20:28:03.311Z,17.63
2022-09-11T20:30:35.827Z,17.76
2022-09-11T20:33:04.791Z,17.68
2022-09-11T20:35:35.758Z,17.61
2022-09-11T20:38:05.904Z,17.62
2022-09-11T20:40:38.317Z,17.58
2022-09-11T20:43:06.674Z,17.53
2022-09-11T20:45:36.353Z,17.48
2022-09-11T20:48:05.904Z,17.51
2022-09-11T20:50:37.608Z,17.52
2022-09-11T20:53:06.917Z,17.51
2022-09-11T20:55:38.064Z,17.52
2022-09-11T20:58:09.864Z,17.46
2022-09-11T21:00:43.429Z,17.49
2022-09-11T21:03:12.270Z,17.11
2022-09-11T21:05:42.485Z,17.02
2022-09-11T21:08:12.493Z,17.24
2022-09-11T21:10:46.663Z,17.16
2022-09-11T21:13:16.779Z,17.22
2022-09-11T21:15:48.192Z,17.15
2022-09-11T21:18:18.912Z,17.18
2022-09-11T21:20:55.342Z,17.16
2022-09-11T21:23:26.838Z,16.99
2022-09-11T21:25:57.225Z,17.22
2022-09-11T21:28:28.394Z,17.35
2022-09-11T21:30:59.920Z,17.19
2022-09-11T21:33:34.264Z,17.23
2022-09-11T21:36:04.597Z,17.43
2022-09-11T21:38:32.950Z,17.40
2022-09-11T21:41:06.860Z,17.44
2022-09-11T21:43:35.436Z,17.39
2022-09-11T21:46:06.412Z,17.09
2022-09-11T21:48:35.989Z,17.04
2022-09-11T21:51:10.292Z,17.11
2022-09-11T21:53:39.590Z,17.24
2022-09-11T21:56:20.668Z,17.15
2022-09-11T21:58:51.340Z,17.16
2022-09-11T22:01:21.129Z,17.16
2022-09-11T22:03:50.622Z,17.12
2022-09-11T22:06:21.800Z,17.06
2022-09-11T22:08:52.622Z,16.89
2022-09-11T22:11:22.917Z,17.33
2022-09-11T22:13:53.300Z,17.17
2022-09-11T22:16:23.483Z,16.82
2022-09-11T22:18:55.322Z,16.97
2022-09-11T22:21:24.527Z,16.93
2022-09-11T22:23:53.377Z,17.08
2022-09-11T22:26:24.756Z,17.15
2022-09-11T22:28:54.480Z,16.94
2022-09-11T22:31:25.049Z,16.82
2022-09-11T22:33:55.265Z,16.93
2022-09-11T22:36:26.258Z,17.09
2022-09-11T22:38:56.286Z,17.05
2022-09-11T22:41:27.221Z,17.01
2022-09-11T22:43:56.562Z,17.00
2022-09-11T22:46:26.856Z,16.97
2022-09-11T22:48:56.920Z,16.90
2022-09-11T22:51:25.444Z,16.92
2022-09-11T22:53:54.595Z,17.04
2022-09-11T22:56:23.514Z,16.75
2022-09-11T22:58:54.893Z,16.80
2022-09-11T23:01:23.731Z,16.70
2022-09-11T23:03:54.021Z,16.76
2022-09-11T23:06:40.516Z,16.74
2022-09-11T23:09:12.787Z,16.87
2022-09-11T23:11:43.707Z,16.89
2022-09-11T23:14:15.396Z,16.85
2022-09-11T23:16:46.741Z,16.66
2022-09-11T23:19:16.216Z,16.68
2022-09-11T23:21:44.943Z,16.80
2022-09-11T23:24:14.605Z,16.81
2022-09-11T23:26:45.890Z,16.72
2022-09-11T23:29:15.682Z,16.58
2022-09-11T23:31:47.610Z,16.64
2022-09-11T23:34:17.783Z,16.65
2022-09-11T23:36:49.097Z,16.76
2022-09-11T23:39:18.318Z,16.68
2022-09-11T23:41:46.418Z,16.69
2022-09-11T23:44:17.772Z,16.70
2022-09-11T23:46:48.779Z,16.67
2022-09-11T23:49:18.321Z,16.83
2022-09-11T23:51:48.395Z,16.68
2022-09-11T23:54:17.825Z,16.84
2022-09-11T23:56:48.889Z,16.97
2022-09-11T23:59:19.821Z,16.75
